createdAt,value
2019-02-19T05:39:42.942Z,8.70
2019-02-19T05:44:54.356Z,8.80
2019-02-19T05:49:59.085Z,8.80
2019-02-19T05:55:03.974Z,8.80
2019-02-19T06:00:11.062Z,8.90
2019-02-19T06:11:08.494Z,8.80
2019-02-19T06:16:58.518Z,8.90
2019-02-19T06:33:42.603Z,8.90
2019-02-19T06:39:33.684Z,8.90
2019-02-19T06:45:02.538Z,9.00
2019-02-19T06:57:38.983Z,8.90
2019-02-19T07:14:33.070Z,8.80
2019-02-19T07:39:36.550Z,9.20
2019-02-19T07:45:41.021Z,9.30
2019-02-19T08:00:10.151Z,9.10
2019-02-19T08:19:58.469Z,9.10
2019-02-19T14:24:05.695Z,13.40
2019-02-19T14:29:31.941Z,13.50
2019-02-19T14:35:04.303Z,13.40
2019-02-19T14:40:27.828Z,13.00
2019-02-19T14:45:51.134Z,12.90
2019-02-19T14:51:13.271Z,13.00
2019-02-19T14:56:31.402Z,13.30
2019-02-19T15:01:53.456Z,13.70
2019-02-19T15:07:13.642Z,14.10
2019-02-19T15:12:35.516Z,14.90
2019-02-19T15:18:10.750Z,15.30
2019-02-19T15:23:32.821Z,14.90
2019-02-19T15:28:53.543Z,14.60
2019-02-19T15:34:23.945Z,14.30
2019-02-19T15:39:45.389Z,13.20
2019-02-19T15:45:10.001Z,12.70
2019-02-19T15:50:36.428Z,12.50
2019-02-19T15:56:05.658Z,12.20
2019-02-19T16:01:43.233Z,11.90
2019-02-19T16:06:52.908Z,11.70
2019-02-19T16:12:18.505Z,11.60
2019-02-19T16:17:40.442Z,11.50
2019-02-19T16:22:54.916Z,11.50
2019-02-19T16:28:11.897Z,11.30
2019-02-19T16:33:57.454Z,11.30
2019-02-19T16:39:25.512Z,10.90
2019-02-19T16:45:07.415Z,10.90
2019-02-19T16:50:49.026Z,10.80
2019-02-19T16:56:09.661Z,10.70
2019-02-19T17:01:36.242Z,10.40
2019-02-19T17:07:04.869Z,10.30
2019-02-19T17:12:41.993Z,10.20
2019-02-19T17:18:33.279Z,10.00
2019-02-19T17:23:59.256Z,9.80
2019-02-19T17:29:50.418Z,9.60
2019-02-19T17:35:57.854Z,9.50
2019-02-19T17:41:29.972Z,9.40
2019-02-19T17:47:23.385Z,9.20
2019-02-19T17:53:09.786Z,9.20
2019-02-19T17:59:02.234Z,9.00
2019-02-19T18:10:53.809Z,8.80
2019-02-19T18:16:20.326Z,8.70
2019-02-19T18:40:03.315Z,8.40
2019-02-19T18:46:50.212Z,8.40
2019-02-19T18:51:32.872Z,8.20
2019-02-19T18:56:06.333Z,7.80
2019-02-19T19:06:58.669Z,7.70
2019-02-19T19:12:20.722Z,7.60
2019-02-19T19:17:44.968Z,7.30
2019-02-19T19:23:10.314Z,7.30
2019-02-19T19:28:37.082Z,7.20
2019-02-19T19:33:52.661Z,6.90
2019-02-19T19:39:12.568Z,6.70
2019-02-19T19:44:33.430Z,6.70
2019-02-19T19:49:46.004Z,6.40
2019-02-19T19:55:21.185Z,6.20
2019-02-19T20:00:50.950Z,6.20
2019-02-19T20:18:14.851Z,5.90
2019-02-19T20:23:21.744Z,5.80
